sensor_id;sensor_type;location;lat;lon;timestamp;P1;durP1;ratioP1;P2;durP2;ratioP2
63818;SDS011;49970;54.976;73.248;2022-10-20T00:01:07;6.25;;;5.63;;
63818;SDS011;49970;54.976;73.248;2022-10-20T00:03:34;6.32;;;5.72;;
63818;SDS011;49970;54.976;73.248;2022-10-20T00:06:08;7.85;;;6.55;;
63818;SDS011;49970;54.976;73.248;2022-10-20T00:08:36;6.18;;;5.68;;
63818;SDS011;49970;54.976;73.248;2022-10-20T00:11:04;9.82;;;6.25;;
63818;SDS011;49970;54.976;73.248;2022-10-20T00:13:31;6.88;;;5.82;;
63818;SDS011;49970;54.976;73.248;2022-10-20T00:15:57;13.85;;;5.90;;
63818;SDS011;49970;54.976;73.248;2022-10-20T00:18:25;6.78;;;5.90;;
63818;SDS011;49970;54.976;73.248;2022-10-20T00:20:52;9.18;;;6.15;;
63818;SDS011;49970;54.976;73.248;2022-10-20T00:23:20;9.63;;;6.00;;
63818;SDS011;49970;54.976;73.248;2022-10-20T00:25:47;6.82;;;5.60;;
63818;SDS011;49970;54.976;73.248;2022-10-20T00:28:13;5.82;;;5.43;;
63818;SDS011;49970;54.976;73.248;2022-10-20T00:30:39;7.22;;;5.85;;
63818;SDS011;49970;54.976;73.248;2022-10-20T00:33:06;7.43;;;5.22;;
63818;SDS011;49970;54.976;73.248;2022-10-20T00:35:32;6.38;;;5.72;;
63818;SDS011;49970;54.976;73.248;2022-10-20T00:38:02;10.38;;;5.50;;
63818;SDS011;49970;54.976;73.248;2022-10-20T00:40:28;6.20;;;5.60;;
63818;SDS011;49970;54.976;73.248;2022-10-20T00:42:59;6.07;;;5.47;;
63818;SDS011;49970;54.976;73.248;2022-10-20T00:45:35;11.88;;;5.47;;
63818;SDS011;49970;54.976;73.248;2022-10-20T00:48:20;6.65;;;5.88;;
63818;SDS011;49970;54.976;73.248;2022-10-20T00:50:53;8.43;;;5.60;;
63818;SDS011;49970;54.976;73.248;2022-10-20T00:53:31;7.57;;;6.00;;
63818;SDS011;49970;54.976;73.248;2022-10-20T00:55:58;5.60;;;4.80;;
63818;SDS011;49970;54.976;73.248;2022-10-20T00:58:25;6.10;;;5.50;;
63818;SDS011;49970;54.976;73.248;2022-10-20T01:00:54;7.40;;;5.78;;
63818;SDS011;49970;54.976;73.248;2022-10-20T01:03:24;6.07;;;5.50;;
63818;SDS011;49970;54.976;73.248;2022-10-20T01:06:13;6.80;;;6.10;;
63818;SDS011;49970;54.976;73.248;2022-10-20T01:08:50;8.45;;;6.18;;
63818;SDS011;49970;54.976;73.248;2022-10-20T01:22:46;12.70;;;5.38;;
63818;SDS011;49970;54.976;73.248;2022-10-20T01:28:19;5.90;;;4.93;;
63818;SDS011;49970;54.976;73.248;2022-10-20T01:30:54;9.60;;;5.18;;
63818;SDS011;49970;54.976;73.248;2022-10-20T01:33:29;7.30;;;5.22;;
63818;SDS011;49970;54.976;73.248;2022-10-20T01:35:58;7.53;;;5.90;;
63818;SDS011;49970;54.976;73.248;2022-10-20T01:38:29;6.53;;;5.40;;
63818;SDS011;49970;54.976;73.248;2022-10-20T01:43:35;6.53;;;5.90;;
63818;SDS011;49970;54.976;73.248;2022-10-20T01:46:04;6.47;;;5.85;;
63818;SDS011;49970;54.976;73.248;2022-10-20T01:48:34;7.90;;;5.90;;
63818;SDS011;49970;54.976;73.248;2022-10-20T01:51:02;5.50;;;5.20;;
63818;SDS011;49970;54.976;73.248;2022-10-20T01:53:29;11.32;;;5.28;;
63818;SDS011;49970;54.976;73.248;2022-10-20T01:55:55;6.72;;;5.18;;
63818;SDS011;49970;54.976;73.248;2022-10-20T01:58:44;16.20;;;5.40;;
63818;SDS011;49970;54.976;73.248;2022-10-20T02:01:19;6.05;;;5.43;;
63818;SDS011;49970;54.976;73.248;2022-10-20T02:04:13;5.50;;;5.00;;
63818;SDS011;49970;54.976;73.248;2022-10-20T02:06:59;6.15;;;5.45;;
63818;SDS011;49970;54.976;73.248;2022-10-20T02:09:49;5.95;;;5.40;;
63818;SDS011;49970;54.976;73.248;2022-10-20T02:12:30;10.20;;;5.50;;
63818;SDS011;49970;54.976;73.248;2022-10-20T02:15:00;6.30;;;5.22;;
63818;SDS011;49970;54.976;73.248;2022-10-20T02:17:31;6.68;;;5.47;;
63818;SDS011;49970;54.976;73.248;2022-10-20T02:20:01;7.13;;;5.93;;
63818;SDS011;49970;54.976;73.248;2022-10-20T02:22:31;8.68;;;5.85;;
63818;SDS011;49970;54.976;73.248;2022-10-20T02:24:59;7.03;;;6.18;;
63818;SDS011;49970;54.976;73.248;2022-10-20T02:27:29;8.35;;;5.68;;
63818;SDS011;49970;54.976;73.248;2022-10-20T02:30:18;7.00;;;6.32;;
63818;SDS011;49970;54.976;73.248;2022-10-20T02:32:46;6.20;;;5.60;;
63818;SDS011;49970;54.976;73.248;2022-10-20T02:35:18;7.40;;;6.35;;
63818;SDS011;49970;54.976;73.248;2022-10-20T02:37:46;10.52;;;5.70;;
63818;SDS011;49970;54.976;73.248;2022-10-20T02:40:17;22.10;;;5.63;;
63818;SDS011;49970;54.976;73.248;2022-10-20T02:42:43;6.82;;;6.03;;
63818;SDS011;49970;54.976;73.248;2022-10-20T02:45:10;6.97;;;5.38;;
63818;SDS011;49970;54.976;73.248;2022-10-20T02:47:36;13.85;;;6.15;;
63818;SDS011;49970;54.976;73.248;2022-10-20T02:50:02;11.07;;;5.80;;
63818;SDS011;49970;54.976;73.248;2022-10-20T02:52:29;8.10;;;6.30;;
63818;SDS011;49970;54.976;73.248;2022-10-20T02:54:56;11.20;;;6.03;;
63818;SDS011;49970;54.976;73.248;2022-10-20T02:57:22;13.00;;;6.03;;
63818;SDS011;49970;54.976;73.248;2022-10-20T02:59:54;7.32;;;6.40;;
63818;SDS011;49970;54.976;73.248;2022-10-20T03:02:20;7.13;;;6.55;;
63818;SDS011;49970;54.976;73.248;2022-10-20T03:04:46;6.45;;;5.82;;
63818;SDS011;49970;54.976;73.248;2022-10-20T03:07:13;7.75;;;6.25;;
63818;SDS011;49970;54.976;73.248;2022-10-20T03:09:39;9.85;;;5.97;;
63818;SDS011;49970;54.976;73.248;2022-10-20T03:12:10;5.18;;;4.88;;
63818;SDS011;49970;54.976;73.248;2022-10-20T03:14:36;5.88;;;5.20;;
63818;SDS011;49970;54.976;73.248;2022-10-20T03:17:03;11.40;;;5.93;;
63818;SDS011;49970;54.976;73.248;2022-10-20T03:19:29;7.15;;;5.93;;
63818;SDS011;49970;54.976;73.248;2022-10-20T03:21:55;6.07;;;5.60;;
63818;SDS011;49970;54.976;73.248;2022-10-20T03:24:21;8.45;;;6.72;;
63818;SDS011;49970;54.976;73.248;2022-10-20T03:26:47;9.35;;;6.82;;
63818;SDS011;49970;54.976;73.248;2022-10-20T03:29:14;9.75;;;7.47;;
63818;SDS011;49970;54.976;73.248;2022-10-20T03:31:40;8.93;;;6.97;;
63818;SDS011;49970;54.976;73.248;2022-10-20T03:34:06;9.20;;;6.35;;
63818;SDS011;49970;54.976;73.248;2022-10-20T03:36:32;7.15;;;5.55;;
63818;SDS011;49970;54.976;73.248;2022-10-20T03:38:59;9.75;;;5.75;;
63818;SDS011;49970;54.976;73.248;2022-10-20T03:41:25;6.70;;;6.10;;
63818;SDS011;49970;54.976;73.248;2022-10-20T03:43:51;7.53;;;5.53;;
63818;SDS011;49970;54.976;73.248;2022-10-20T03:46:17;6.78;;;6.18;;
63818;SDS011;49970;54.976;73.248;2022-10-20T03:48:43;8.02;;;5.03;;
63818;SDS011;49970;54.976;73.248;2022-10-20T03:51:10;5.78;;;4.93;;
63818;SDS011;49970;54.976;73.248;2022-10-20T03:53:38;8.13;;;4.90;;
63818;SDS011;49970;54.976;73.248;2022-10-20T03:56:14;9.80;;;4.65;;
63818;SDS011;49970;54.976;73.248;2022-10-20T03:58:43;7.90;;;4.28;;
63818;SDS011;49970;54.976;73.248;2022-10-20T04:01:16;4.40;;;4.18;;
63818;SDS011;49970;54.976;73.248;2022-10-20T04:03:44;7.97;;;4.80;;
63818;SDS011;49970;54.976;73.248;2022-10-20T04:06:15;4.43;;;4.22;;
63818;SDS011;49970;54.976;73.248;2022-10-20T04:08:41;5.47;;;3.75;;
63818;SDS011;49970;54.976;73.248;2022-10-20T04:11:07;4.50;;;4.10;;
63818;SDS011;49970;54.976;73.248;2022-10-20T04:13:34;5.35;;;4.63;;
63818;SDS011;49970;54.976;73.248;2022-10-20T04:16:00;8.55;;;3.92;;
63818;SDS011;49970;54.976;73.248;2022-10-20T04:18:26;7.20;;;4.15;;
63818;SDS011;49970;54.976;73.248;2022-10-20T04:20:53;3.85;;;3.55;;
63818;SDS011;49970;54.976;73.248;2022-10-20T04:23:19;6.18;;;4.25;;
63818;SDS011;49970;54.976;73.248;2022-10-20T04:25:45;3.85;;;3.65;;
63818;SDS011;49970;54.976;73.248;2022-10-20T04:28:13;4.65;;;3.67;;
63818;SDS011;49970;54.976;73.248;2022-10-20T04:30:59;6.43;;;3.40;;
63818;SDS011;49970;54.976;73.248;2022-10-20T04:33:35;4.00;;;3.70;;
63818;SDS011;49970;54.976;73.248;2022-10-20T04:36:03;4.72;;;4.10;;
63818;SDS011;49970;54.976;73.248;2022-10-20T04:38:35;4.72;;;3.58;;
63818;SDS011;49970;54.976;73.248;2022-10-20T04:41:02;4.18;;;3.88;;
63818;SDS011;49970;54.976;73.248;2022-10-20T04:43:30;4.25;;;4.00;;
63818;SDS011;49970;54.976;73.248;2022-10-20T04:46:03;4.40;;;3.95;;
63818;SDS011;49970;54.976;73.248;2022-10-20T04:48:31;4.38;;;3.97;;
63818;SDS011;49970;54.976;73.248;2022-10-20T04:51:04;4.38;;;3.97;;
63818;SDS011;49970;54.976;73.248;2022-10-20T04:53:37;6.38;;;4.35;;
63818;SDS011;49970;54.976;73.248;2022-10-20T04:56:16;4.10;;;3.72;;
63818;SDS011;49970;54.976;73.248;2022-10-20T04:58:47;4.72;;;4.30;;
63818;SDS011;49970;54.976;73.248;2022-10-20T05:01:16;4.85;;;4.45;;
63818;SDS011;49970;54.976;73.248;2022-10-20T05:03:44;5.88;;;5.15;;
63818;SDS011;49970;54.976;73.248;2022-10-20T05:06:12;10.48;;;6.32;;
63818;SDS011;49970;54.976;73.248;2022-10-20T05:08:40;7.88;;;5.85;;
63818;SDS011;49970;54.976;73.248;2022-10-20T05:11:12;7.43;;;6.57;;
63818;SDS011;49970;54.976;73.248;2022-10-20T05:13:44;7.75;;;6.88;;
63818;SDS011;49970;54.976;73.248;2022-10-20T05:16:15;8.02;;;6.30;;
63818;SDS011;49970;54.976;73.248;2022-10-20T05:18:52;9.00;;;8.20;;
63818;SDS011;49970;54.976;73.248;2022-10-20T05:21:23;8.77;;;7.88;;
63818;SDS011;49970;54.976;73.248;2022-10-20T05:23:58;8.80;;;7.97;;
63818;SDS011;49970;54.976;73.248;2022-10-20T05:26:26;9.23;;;8.07;;
63818;SDS011;49970;54.976;73.248;2022-10-20T05:29:04;8.73;;;7.80;;
63818;SDS011;49970;54.976;73.248;2022-10-20T05:31:36;11.07;;;7.78;;
63818;SDS011;49970;54.976;73.248;2022-10-20T05:34:04;9.70;;;7.25;;
63818;SDS011;49970;54.976;73.248;2022-10-20T05:36:31;8.60;;;7.85;;
63818;SDS011;49970;54.976;73.248;2022-10-20T05:39:08;9.02;;;8.07;;
63818;SDS011;49970;54.976;73.248;2022-10-20T05:41:35;7.45;;;6.80;;
63818;SDS011;49970;54.976;73.248;2022-10-20T05:44:02;10.38;;;7.63;;
63818;SDS011;49970;54.976;73.248;2022-10-20T05:46:31;13.05;;;7.38;;
63818;SDS011;49970;54.976;73.248;2022-10-20T05:48:59;10.60;;;7.70;;
63818;SDS011;49970;54.976;73.248;2022-10-20T05:51:28;11.35;;;6.93;;
63818;SDS011;49970;54.976;73.248;2022-10-20T05:54:08;13.45;;;6.55;;
63818;SDS011;49970;54.976;73.248;2022-10-20T05:56:36;6.07;;;5.65;;
63818;SDS011;49970;54.976;73.248;2022-10-20T05:59:02;7.82;;;6.55;;
63818;SDS011;49970;54.976;73.248;2022-10-20T06:01:29;18.90;;;6.28;;
63818;SDS011;49970;54.976;73.248;2022-10-20T06:04:13;18.48;;;6.78;;
63818;SDS011;49970;54.976;73.248;2022-10-20T06:06:44;6.93;;;6.43;;
63818;SDS011;49970;54.976;73.248;2022-10-20T06:09:10;6.88;;;6.25;;
63818;SDS011;49970;54.976;73.248;2022-10-20T06:11:37;5.50;;;5.00;;
63818;SDS011;49970;54.976;73.248;2022-10-20T06:14:03;10.05;;;5.35;;
63818;SDS011;49970;54.976;73.248;2022-10-20T06:16:29;6.28;;;5.28;;
63818;SDS011;49970;54.976;73.248;2022-10-20T06:18:57;6.40;;;5.40;;
63818;SDS011;49970;54.976;73.248;2022-10-20T06:21:25;6.20;;;5.60;;
63818;SDS011;49970;54.976;73.248;2022-10-20T06:23:53;9.05;;;5.13;;
63818;SDS011;49970;54.976;73.248;2022-10-20T06:26:21;6.53;;;4.28;;
63818;SDS011;49970;54.976;73.248;2022-10-20T06:28:50;4.72;;;4.38;;
63818;SDS011;49970;54.976;73.248;2022-10-20T06:31:22;5.43;;;4.32;;
63818;SDS011;49970;54.976;73.248;2022-10-20T06:33:53;13.85;;;4.30;;
63818;SDS011;49970;54.976;73.248;2022-10-20T06:36:21;3.03;;;2.83;;
63818;SDS011;49970;54.976;73.248;2022-10-20T06:38:51;4.93;;;4.30;;
63818;SDS011;49970;54.976;73.248;2022-10-20T06:41:21;3.28;;;3.08;;
63818;SDS011;49970;54.976;73.248;2022-10-20T06:43:48;3.75;;;3.25;;
63818;SDS011;49970;54.976;73.248;2022-10-20T06:46:15;4.28;;;3.72;;
63818;SDS011;49970;54.976;73.248;2022-10-20T06:48:53;3.72;;;3.38;;
63818;SDS011;49970;54.976;73.248;2022-10-20T06:51:19;10.00;;;4.90;;
63818;SDS011;49970;54.976;73.248;2022-10-20T06:53:49;12.38;;;6.93;;
63818;SDS011;49970;54.976;73.248;2022-10-20T06:56:17;5.28;;;4.78;;
63818;SDS011;49970;54.976;73.248;2022-10-20T06:58:55;6.50;;;4.72;;
63818;SDS011;49970;54.976;73.248;2022-10-20T07:01:24;4.88;;;4.18;;
63818;SDS011;49970;54.976;73.248;2022-10-20T07:03:54;5.55;;;4.05;;
63818;SDS011;49970;54.976;73.248;2022-10-20T07:06:23;13.45;;;4.55;;
63818;SDS011;49970;54.976;73.248;2022-10-20T07:09:00;17.80;;;5.15;;
63818;SDS011;49970;54.976;73.248;2022-10-20T07:11:32;6.68;;;4.88;;
63818;SDS011;49970;54.976;73.248;2022-10-20T07:14:00;18.48;;;5.00;;
63818;SDS011;49970;54.976;73.248;2022-10-20T07:16:27;8.90;;;4.90;;
63818;SDS011;49970;54.976;73.248;2022-10-20T07:18:56;5.97;;;4.18;;
63818;SDS011;49970;54.976;73.248;2022-10-20T07:21:24;4.50;;;3.30;;
63818;SDS011;49970;54.976;73.248;2022-10-20T07:23:52;4.30;;;3.25;;
63818;SDS011;49970;54.976;73.248;2022-10-20T07:26:21;4.43;;;3.40;;
63818;SDS011;49970;54.976;73.248;2022-10-20T07:28:52;5.55;;;4.13;;
63818;SDS011;49970;54.976;73.248;2022-10-20T07:31:21;3.33;;;3.03;;
63818;SDS011;49970;54.976;73.248;2022-10-20T07:34:18;3.70;;;3.05;;
63818;SDS011;49970;54.976;73.248;2022-10-20T07:36:47;4.22;;;2.30;;
63818;SDS011;49970;54.976;73.248;2022-10-20T07:39:14;4.70;;;3.00;;
63818;SDS011;49970;54.976;73.248;2022-10-20T07:41:40;3.00;;;2.70;;
63818;SDS011;49970;54.976;73.248;2022-10-20T07:44:10;3.33;;;3.08;;
63818;SDS011;49970;54.976;73.248;2022-10-20T07:46:36;3.15;;;2.95;;
63818;SDS011;49970;54.976;73.248;2022-10-20T07:49:02;5.75;;;3.30;;
63818;SDS011;49970;54.976;73.248;2022-10-20T07:51:29;3.28;;;3.03;;
63818;SDS011;49970;54.976;73.248;2022-10-20T07:53:58;9.35;;;3.53;;
63818;SDS011;49970;54.976;73.248;2022-10-20T07:56:31;2.85;;;2.65;;
63818;SDS011;49970;54.976;73.248;2022-10-20T07:59:02;4.70;;;3.25;;
63818;SDS011;49970;54.976;73.248;2022-10-20T08:01:29;7.10;;;2.70;;
63818;SDS011;49970;54.976;73.248;2022-10-20T08:03:56;4.88;;;3.05;;
63818;SDS011;49970;54.976;73.248;2022-10-20T08:06:22;5.60;;;3.50;;
63818;SDS011;49970;54.976;73.248;2022-10-20T08:08:55;7.27;;;3.70;;
63818;SDS011;49970;54.976;73.248;2022-10-20T08:11:21;3.45;;;3.15;;
63818;SDS011;49970;54.976;73.248;2022-10-20T08:13:48;2.70;;;2.50;;
63818;SDS011;49970;54.976;73.248;2022-10-20T08:16:14;5.85;;;2.80;;
63818;SDS011;49970;54.976;73.248;2022-10-20T08:18:41;6.60;;;3.45;;
63818;SDS011;49970;54.976;73.248;2022-10-20T08:21:15;4.45;;;4.00;;
63818;SDS011;49970;54.976;73.248;2022-10-20T08:23:43;10.82;;;3.75;;
63818;SDS011;49970;54.976;73.248;2022-10-20T08:26:12;3.67;;;3.45;;
63818;SDS011;49970;54.976;73.248;2022-10-20T08:28:49;3.72;;;3.42;;
63818;SDS011;49970;54.976;73.248;2022-10-20T08:31:17;3.67;;;3.47;;
63818;SDS011;49970;54.976;73.248;2022-10-20T08:33:44;15.05;;;4.13;;
63818;SDS011;49970;54.976;73.248;2022-10-20T08:36:15;3.33;;;3.13;;
63818;SDS011;49970;54.976;73.248;2022-10-20T08:38:42;4.28;;;2.90;;
63818;SDS011;49970;54.976;73.248;2022-10-20T08:43:46;2.22;;;2.03;;
63818;SDS011;49970;54.976;73.248;2022-10-20T08:46:15;2.22;;;2.13;;
63818;SDS011;49970;54.976;73.248;2022-10-20T08:48:43;2.40;;;2.17;;
63818;SDS011;49970;54.976;73.248;2022-10-20T08:51:21;2.30;;;2.10;;
63818;SDS011;49970;54.976;73.248;2022-10-20T08:53:51;2.15;;;2.05;;
63818;SDS011;49970;54.976;73.248;2022-10-20T08:56:27;2.83;;;2.60;;
63818;SDS011;49970;54.976;73.248;2022-10-20T08:58:57;3.60;;;2.45;;
63818;SDS011;49970;54.976;73.248;2022-10-20T09:01:27;2.58;;;2.40;;
63818;SDS011;49970;54.976;73.248;2022-10-20T09:04:14;2.80;;;2.70;;
63818;SDS011;49970;54.976;73.248;2022-10-20T09:06:46;2.85;;;2.65;;
63818;SDS011;49970;54.976;73.248;2022-10-20T09:09:19;6.47;;;3.00;;
63818;SDS011;49970;54.976;73.248;2022-10-20T09:11:46;3.33;;;3.03;;
63818;SDS011;49970;54.976;73.248;2022-10-20T09:14:31;4.70;;;2.92;;
63818;SDS011;49970;54.976;73.248;2022-10-20T09:18:05;8.15;;;2.92;;
63818;SDS011;49970;54.976;73.248;2022-10-20T09:20:59;4.57;;;3.40;;
63818;SDS011;49970;54.976;73.248;2022-10-20T09:23:30;3.70;;;3.40;;
63818;SDS011;49970;54.976;73.248;2022-10-20T09:26:03;4.80;;;3.50;;
63818;SDS011;49970;54.976;73.248;2022-10-20T09:28:29;3.72;;;3.42;;
63818;SDS011;49970;54.976;73.248;2022-10-20T09:30:55;9.20;;;3.63;;
63818;SDS011;49970;54.976;73.248;2022-10-20T09:33:29;4.55;;;3.85;;
63818;SDS011;49970;54.976;73.248;2022-10-20T09:36:19;3.20;;;3.10;;
63818;SDS011;49970;54.976;73.248;2022-10-20T09:38:46;6.90;;;4.50;;
63818;SDS011;49970;54.976;73.248;2022-10-20T09:41:19;5.68;;;5.10;;
63818;SDS011;49970;54.976;73.248;2022-10-20T09:43:55;14.65;;;10.05;;
63818;SDS011;49970;54.976;73.248;2022-10-20T09:46:27;14.43;;;9.63;;
63818;SDS011;49970;54.976;73.248;2022-10-20T09:49:01;29.48;;;17.92;;
63818;SDS011;49970;54.976;73.248;2022-10-20T09:51:28;11.43;;;9.32;;
63818;SDS011;49970;54.976;73.248;2022-10-20T09:54:02;17.00;;;10.73;;
63818;SDS011;49970;54.976;73.248;2022-10-20T09:56:37;17.08;;;6.90;;
63818;SDS011;49970;54.976;73.248;2022-10-20T09:59:30;6.38;;;5.88;;
63818;SDS011;49970;54.976;73.248;2022-10-20T10:02:26;5.93;;;4.97;;
63818;SDS011;49970;54.976;73.248;2022-10-20T10:04:54;5.45;;;4.88;;
63818;SDS011;49970;54.976;73.248;2022-10-20T10:07:38;4.82;;;4.53;;
63818;SDS011;49970;54.976;73.248;2022-10-20T10:10:26;4.57;;;4.13;;
63818;SDS011;49970;54.976;73.248;2022-10-20T10:12:54;5.95;;;3.85;;
63818;SDS011;49970;54.976;73.248;2022-10-20T10:17:53;5.53;;;3.85;;
63818;SDS011;49970;54.976;73.248;2022-10-20T10:22:48;15.55;;;4.28;;
63818;SDS011;49970;54.976;73.248;2022-10-20T10:25:35;4.45;;;4.15;;
63818;SDS011;49970;54.976;73.248;2022-10-20T10:28:07;3.88;;;3.65;;
63818;SDS011;49970;54.976;73.248;2022-10-20T10:30:44;4.13;;;3.80;;
63818;SDS011;49970;54.976;73.248;2022-10-20T10:33:28;4.40;;;4.03;;
63818;SDS011;49970;54.976;73.248;2022-10-20T10:35:55;5.63;;;3.33;;
63818;SDS011;49970;54.976;73.248;2022-10-20T10:38:21;4.45;;;4.15;;
63818;SDS011;49970;54.976;73.248;2022-10-20T10:43:49;7.18;;;3.83;;
63818;SDS011;49970;54.976;73.248;2022-10-20T10:46:54;4.38;;;4.07;;
63818;SDS011;49970;54.976;73.248;2022-10-20T10:49:37;4.40;;;4.00;;
63818;SDS011;49970;54.976;73.248;2022-10-20T10:55:17;4.15;;;3.90;;
63818;SDS011;49970;54.976;73.248;2022-10-20T10:57:50;4.43;;;4.00;;
63818;SDS011;49970;54.976;73.248;2022-10-20T11:00:32;4.30;;;4.00;;
63818;SDS011;49970;54.976;73.248;2022-10-20T11:03:22;4.80;;;4.53;;
63818;SDS011;49970;54.976;73.248;2022-10-20T11:06:18;5.70;;;4.95;;
63818;SDS011;49970;54.976;73.248;2022-10-20T11:14:45;13.15;;;4.88;;
63818;SDS011;49970;54.976;73.248;2022-10-20T11:17:47;10.20;;;5.00;;
63818;SDS011;49970;54.976;73.248;2022-10-20T11:23:41;6.35;;;5.72;;
63818;SDS011;49970;54.976;73.248;2022-10-20T11:26:34;15.68;;;5.90;;
63818;SDS011;49970;54.976;73.248;2022-10-20T11:29:10;9.18;;;5.90;;
63818;SDS011;49970;54.976;73.248;2022-10-20T11:32:08;7.07;;;6.35;;
63818;SDS011;49970;54.976;73.248;2022-10-20T11:37:22;6.43;;;5.88;;
63818;SDS011;49970;54.976;73.248;2022-10-20T11:42:39;7.75;;;6.35;;
63818;SDS011;49970;54.976;73.248;2022-10-20T11:48:33;7.82;;;7.18;;
63818;SDS011;49970;54.976;73.248;2022-10-20T11:52:03;9.20;;;8.40;;
63818;SDS011;49970;54.976;73.248;2022-10-20T12:19:32;19.08;;;14.82;;
63818;SDS011;49970;54.976;73.248;2022-10-20T12:22:04;26.40;;;18.73;;
63818;SDS011;49970;54.976;73.248;2022-10-20T12:27:23;18.15;;;14.93;;
63818;SDS011;49970;54.976;73.248;2022-10-20T12:30:13;19.67;;;13.30;;
63818;SDS011;49970;54.976;73.248;2022-10-20T12:33:08;14.15;;;12.13;;
63818;SDS011;49970;54.976;73.248;2022-10-20T12:35:57;14.35;;;12.48;;
63818;SDS011;49970;54.976;73.248;2022-10-20T12:38:50;18.08;;;13.35;;
63818;SDS011;49970;54.976;73.248;2022-10-20T12:41:28;16.95;;;13.35;;
63818;SDS011;49970;54.976;73.248;2022-10-20T12:44:05;14.35;;;12.70;;
63818;SDS011;49970;54.976;73.248;2022-10-20T12:46:40;14.95;;;12.15;;
63818;SDS011;49970;54.976;73.248;2022-10-20T12:50:20;15.98;;;12.10;;
63818;SDS011;49970;54.976;73.248;2022-10-20T12:52:26;13.10;;;11.77;;
63818;SDS011;49970;54.976;73.248;2022-10-20T12:57:43;15.95;;;14.25;;
63818;SDS011;49970;54.976;73.248;2022-10-20T13:02:53;19.92;;;15.10;;
63818;SDS011;49970;54.976;73.248;2022-10-20T13:08:21;19.27;;;15.13;;
63818;SDS011;49970;54.976;73.248;2022-10-20T13:10:50;18.52;;;14.98;;
63818;SDS011;49970;54.976;73.248;2022-10-20T13:15:51;16.65;;;14.20;;
63818;SDS011;49970;54.976;73.248;2022-10-20T13:18:24;16.38;;;13.82;;
63818;SDS011;49970;54.976;73.248;2022-10-20T13:26:11;19.83;;;14.77;;
63818;SDS011;49970;54.976;73.248;2022-10-20T13:28:45;16.70;;;14.00;;
63818;SDS011;49970;54.976;73.248;2022-10-20T13:31:25;17.70;;;13.85;;
63818;SDS011;49970;54.976;73.248;2022-10-20T13:42:04;17.13;;;13.45;;
63818;SDS011;49970;54.976;73.248;2022-10-20T13:50:52;17.27;;;14.07;;
63818;SDS011;49970;54.976;73.248;2022-10-20T13:53:30;31.70;;;18.63;;
63818;SDS011;49970;54.976;73.248;2022-10-20T13:59:02;36.05;;;24.67;;
63818;SDS011;49970;54.976;73.248;2022-10-20T14:01:32;17.70;;;13.57;;
63818;SDS011;49970;54.976;73.248;2022-10-20T14:04:00;21.42;;;12.45;;
63818;SDS011;49970;54.976;73.248;2022-10-20T14:09:11;14.27;;;10.68;;
63818;SDS011;49970;54.976;73.248;2022-10-20T14:11:55;16.85;;;11.65;;
63818;SDS011;49970;54.976;73.248;2022-10-20T14:14:36;21.63;;;12.90;;
63818;SDS011;49970;54.976;73.248;2022-10-20T14:17:15;15.02;;;12.18;;
63818;SDS011;49970;54.976;73.248;2022-10-20T14:19:44;20.23;;;13.15;;
63818;SDS011;49970;54.976;73.248;2022-10-20T14:24:44;18.00;;;12.07;;
63818;SDS011;49970;54.976;73.248;2022-10-20T14:27:14;15.95;;;12.65;;
63818;SDS011;49970;54.976;73.248;2022-10-20T14:29:45;19.30;;;11.57;;
63818;SDS011;49970;54.976;73.248;2022-10-20T14:32:19;17.52;;;11.90;;
63818;SDS011;49970;54.976;73.248;2022-10-20T14:35:30;15.05;;;10.73;;
63818;SDS011;49970;54.976;73.248;2022-10-20T14:37:44;13.65;;;10.95;;
63818;SDS011;49970;54.976;73.248;2022-10-20T14:40:37;12.48;;;10.35;;
63818;SDS011;49970;54.976;73.248;2022-10-20T14:45:39;11.23;;;10.00;;
63818;SDS011;49970;54.976;73.248;2022-10-20T14:48:05;10.18;;;8.25;;
63818;SDS011;49970;54.976;73.248;2022-10-20T14:50:38;11.48;;;9.00;;
63818;SDS011;49970;54.976;73.248;2022-10-20T14:53:26;14.57;;;8.18;;
63818;SDS011;49970;54.976;73.248;2022-10-20T14:55:56;11.52;;;8.52;;
63818;SDS011;49970;54.976;73.248;2022-10-20T15:04:06;13.30;;;9.73;;
63818;SDS011;49970;54.976;73.248;2022-10-20T15:06:35;12.75;;;10.48;;
63818;SDS011;49970;54.976;73.248;2022-10-20T15:09:01;24.67;;;14.75;;
63818;SDS011;49970;54.976;73.248;2022-10-20T15:11:28;29.98;;;17.95;;
63818;SDS011;49970;54.976;73.248;2022-10-20T15:13:56;33.40;;;19.40;;
63818;SDS011;49970;54.976;73.248;2022-10-20T15:16:32;28.25;;;16.52;;
63818;SDS011;49970;54.976;73.248;2022-10-20T15:24:32;21.15;;;12.02;;
63818;SDS011;49970;54.976;73.248;2022-10-20T15:27:11;12.15;;;10.65;;
63818;SDS011;49970;54.976;73.248;2022-10-20T15:29:48;19.45;;;10.52;;
63818;SDS011;49970;54.976;73.248;2022-10-20T15:32:25;18.02;;;11.27;;
63818;SDS011;49970;54.976;73.248;2022-10-20T15:34:51;13.30;;;10.88;;
63818;SDS011;49970;54.976;73.248;2022-10-20T15:37:22;16.75;;;10.10;;
63818;SDS011;49970;54.976;73.248;2022-10-20T15:39:48;11.55;;;10.35;;
63818;SDS011;49970;54.976;73.248;2022-10-20T15:42:20;9.23;;;8.35;;
63818;SDS011;49970;54.976;73.248;2022-10-20T15:44:46;9.05;;;7.63;;
63818;SDS011;49970;54.976;73.248;2022-10-20T15:47:13;10.75;;;8.75;;
63818;SDS011;49970;54.976;73.248;2022-10-20T15:49:39;9.13;;;8.32;;
63818;SDS011;49970;54.976;73.248;2022-10-20T15:52:10;8.88;;;8.00;;
63818;SDS011;49970;54.976;73.248;2022-10-20T15:54:46;9.23;;;8.23;;
63818;SDS011;49970;54.976;73.248;2022-10-20T15:57:12;8.55;;;7.75;;
63818;SDS011;49970;54.976;73.248;2022-10-20T15:59:39;9.15;;;8.25;;
63818;SDS011;49970;54.976;73.248;2022-10-20T16:02:09;8.10;;;7.40;;
63818;SDS011;49970;54.976;73.248;2022-10-20T16:04:37;8.40;;;7.43;;
63818;SDS011;49970;54.976;73.248;2022-10-20T16:07:03;9.73;;;6.95;;
63818;SDS011;49970;54.976;73.248;2022-10-20T16:09:30;7.90;;;7.30;;
63818;SDS011;49970;54.976;73.248;2022-10-20T16:11:57;8.65;;;7.78;;
63818;SDS011;49970;54.976;73.248;2022-10-20T16:14:23;8.15;;;7.40;;
63818;SDS011;49970;54.976;73.248;2022-10-20T16:16:50;10.25;;;7.45;;
63818;SDS011;49970;54.976;73.248;2022-10-20T16:19:26;7.70;;;7.00;;
63818;SDS011;49970;54.976;73.248;2022-10-20T16:21:52;10.07;;;7.47;;
63818;SDS011;49970;54.976;73.248;2022-10-20T16:24:23;11.10;;;7.65;;
63818;SDS011;49970;54.976;73.248;2022-10-20T16:26:55;9.10;;;8.20;;
63818;SDS011;49970;54.976;73.248;2022-10-20T16:29:21;8.10;;;7.38;;
63818;SDS011;49970;54.976;73.248;2022-10-20T16:31:47;8.88;;;8.07;;
63818;SDS011;49970;54.976;73.248;2022-10-20T16:34:13;9.35;;;8.13;;
63818;SDS011;49970;54.976;73.248;2022-10-20T16:36:39;9.98;;;8.95;;
63818;SDS011;49970;54.976;73.248;2022-10-20T16:39:11;9.65;;;8.65;;
63818;SDS011;49970;54.976;73.248;2022-10-20T16:41:38;10.15;;;8.77;;
63818;SDS011;49970;54.976;73.248;2022-10-20T16:44:04;8.93;;;8.13;;
63818;SDS011;49970;54.976;73.248;2022-10-20T16:46:31;12.18;;;8.32;;
63818;SDS011;49970;54.976;73.248;2022-10-20T16:48:57;11.68;;;8.35;;
63818;SDS011;49970;54.976;73.248;2022-10-20T16:51:23;10.73;;;9.43;;
63818;SDS011;49970;54.976;73.248;2022-10-20T16:53:49;10.60;;;9.57;;
63818;SDS011;49970;54.976;73.248;2022-10-20T16:56:16;11.20;;;10.13;;
63818;SDS011;49970;54.976;73.248;2022-10-20T16:58:42;10.75;;;9.73;;
63818;SDS011;49970;54.976;73.248;2022-10-20T17:01:19;12.73;;;10.98;;
63818;SDS011;49970;54.976;73.248;2022-10-20T17:03:50;19.42;;;12.75;;
63818;SDS011;49970;54.976;73.248;2022-10-20T17:06:21;21.00;;;15.18;;